Terminal Aerodrome Forecast
Issued by NWS Detroit/Pontiac, MI

Home | Current Version | Previous Version | Text Only | Print | Product List | Glossary On
Versions: 1 2 3 4 5 6 7 8 9 10 11 12 13 14 15 16 17 18
000
FTUS43 KDTX 010520
TAFFNT
TAF
KFNT 010520Z 0106/0206 08010KT 6SM -SHRA BR BKN007 OVC015
     FM010900 08005KT 4SM -SHRA BR OVC004
     FM011300 08005KT 4SM -SHRA BR OVC007
     FM011700 10005KT 6SM -SHRA OVC015
     FM012300 13005KT 6SM -SHRA BKN025 OVC040
     FM020200 18005KT P6SM BKN040 BKN080=

USA.gov is the U.S. government's official web portal to all federal, state and local government web resources and services.